KIFA

Iowa Falls Municipal Airport

Iowa Falls, Iowa, USA
METAR KIFA 151935Z AUTO 25015G19KT 10SM BKN050 05/M02 A2987 RMK AO2 T00541023
Observed Flight Rules
Dec-15 @ 19:35 UTC (17 minutes ago) Visual Flight Rules
Wind Visibility Clouds
250° at 15 knots
 Gusting to 19 knots
10 miles
  • Broken at 5,000' AGL
Temperatures Readings
Current 5°C / 41°F
Dewpoint -2°C / 28°F
Humidity 61%
Altimeter 29.87" Hg
Pressure 1012 hPa
Elevation 347
METAR KIFA 151935Z AUTO 25015G19KT 10SM BKN050 05/M02 A2987 RMK AO2 T00541023
Observed Flight Rules
Dec-15 @ 19:35 UTC
(17 minutes ago)
VFR
Wind Visibility
250° at 15 knots
 Gusting to 19 knots
10 miles
Clouds
  • Broken at 5,000' AGL
Temperature Dewpoint
5°C / 41°F -2°C / 28°F
Humidity Altimeter Pressure
61% 29.87" Hg 1012 hPa